NCAR-RAP Real-Time Weather Data

Output produced by METARs form (12 May 2021  10:44 UTC)
found at http://weather.rap.ucar.edu/surface/
 
KPIH 120953Z AUTO 32005KT 10SM CLR 02/M02 A3018 RMK AO2 SLP212 T00221022
KPIH 120853Z AUTO 00000KT 10SM CLR 04/M04 A3018 RMK AO2 SLP207 T00391039 51004
KPIH 120753Z AUTO 00000KT 10SM CLR 04/M03 A3017 RMK AO2 SLP207 T00441033
KPIH 120653Z AUTO 10004KT 10SM CLR 06/M03 A3017 RMK AO2 SLP206 T00561028 401671022
KPIH 120553Z AUTO 18005KT 10SM CLR 07/M05 A3016 RMK AO2 SLP203 T00721050 10167 20056 51007
KPIH 120453Z AUTO 18006KT 10SM CLR 06/M04 A3016 RMK AO2 SLP204 T00611044
KPIH 120353Z 17007KT 10SM CLR 07/M05 A3015 RMK AO2 SLP204 T00721050
KPIH 120253Z 21004KT 10SM CLR 12/M06 A3014 RMK AO2 SLP194 T01221056 53000
KPIH 120153Z 28005KT 10SM CLR 15/M08 A3013 RMK AO2 SLP191 T01501083
KPIH 120053Z 22006KT 10SM FEW085 16/M07 A3013 RMK AO2 SLP196 T01611072
KPIH 112353Z 24008KT 10SM SCT085 17/M05 A3014 RMK AO2 SLP197 T01671050 10167 20111 56009
KPIH 112253Z 25009KT 10SM SCT085 16/M04 A3014 RMK AO2 SLP201 T01611044
KPIH 112153Z 28005KT 10SM SCT060 15/M04 A3015 RMK AO2 SLP203 T01501039
KPIH 112053Z COR 25005KT 10SM SCT060 15/M03 A3017 RMK AO2 SLP207 T01501033 56008
KPIH 111953Z VRB03KT 10SM BKN065 13/M03 A3017 RMK AO2 SLP211 T01331033